Tichnor, AR (72166)

6:01 AM CDT on May 23, 2015 (GMT -0500)
Near Camp Doughboy | | Change Station
CLOSE
Current Station
Personal Weather Station
Location: Gillett, AR
Elevation: 194 ft
Nearby Weather Stations
Active Advisory: Flood Warning Active Notice: Record Report

Elev 194 ft 34.19 °N, 91.34 °W | Updated 8 minutes ago

Partly Cloudy
Partly Cloudy
61.7 °F
Feels Like 61.7 °F
N
1.0
Wind Variable Wind from ENE
Gusts 3.0 mph

Today
High -- | Low -- °F
--% Chance of Precip.
Yesterday
High -- | Low -- °F
Precip. -- in
5:58 AM 8:05 PM
Waxing Crescent, 29% visible
Pressure 30.23 in
Visibility 10.0 miles
Clouds Clear
Dew Point 58 °F
Humidity 87%
Rainfall 0.00 in
Snow Depth Not available.
UV 0 out of 12
Pollen 7.50 out of 12
Air Quality Not available.
Flu Activity No Activity
METAR KRNV 231035Z AUTO 08003KT 10SM CLR 16/14 A3023 RMK AO2 T01550144

More Conditions Fewer Conditions

Pressure 30.23 in
Visibility 10.0 miles
Clouds Clear
Dew Point 58 °F
Humidity 87%
Rainfall 0.00 in
Snow Depth Not available.
UV 0 out of 12
Pollen 7.50 out of 12
Air Quality Not available.
Flu Activity No Activity
METAR KRNV 231035Z AUTO 08003KT 10SM CLR 16/14 A3023 RMK AO2 T01550144

More Conditions Fewer Conditions

10-Day Weather Forecast

Almanac

Astronomy

May. 23, 2015 Rise Set
Actual Time
Civil Twilight
Nautical Twilight
Astronomical Twilight
Moon
Length of Visible Light
Length of Day
Tomorrow will be .
, % of the Moon is Illuminated

Today's Extremes

State Highs State Lows

Community

WunderPhotos

Upload Photos

1,823,409 photos uploaded!

WunderBlogs® & News

Nearby

Air Quality

  Air Quality AQ Index Pollutant
Not available.

Snow Depth

Station Depth Elevation

Earthquake Activity

City Distance Mag. Time & Date
Minimum magnitude displayed is 2.5.

Coastal Water Temperatures

Place Temperature

Stations

Nearby Weather Stations

Station Location Temp. Windchill Dew Point Humidity Wind Precip. Elev Updated Type
                   
Flood Warning
Statement as of 9:03 PM CDT on May 22, 2015

The Flood Warning continues for
the White River at Clarendon.
* Until further notice... or until the warning is cancelled.
* At 8:00 PM Friday the stage was 27.8 feet.
* Minor flooding is occurring and minor flooding is forecast.
* Flood stage is 26.0 feet.
* Forecast... the river will continue rising to near 28.2 feet by
Sunday afternoon.
* Impacts at 26.0 feet... river flows in many side channels and creates
islands between the river and sloughs and creeks. Flooding of cropland
and Timber is occurring. Portions of the National wildlife Refuge
downstream of Clarendon flooding.



             Fld observed forecast 7 am
location stg stg day time Sat sun Mon Tue Wed

Lower White River
Clarendon 26 27.8 Fri 08 PM 28.0 28.1 28.1 28.1 28.0




Lat... Lon 3435 9119 3449 9132 3466 9139 3472 9129
3455 9120 3442 9108